Saga Sapphire — 9HOF8 — position and weather

sailwx.info

Track history (hours):
 
Tides and Currents Weather Stations Pressure Air Temp Water Temp Dewpoint Dewpoint Depression Visibility Wind Speed Wind Dir Waves Ship Positions

Saga Sapphire

Last reported at 2017-Sep-19 11:30 UTC. Time now 2017-Sep-19 11:43 UTC.
Position N 37°44' W 025°40'.

Length 200 m; draft 8.6 m.

Type: Ship. MMSI: 256208000.

Date/timePositionNaut miles runAvg speedWind from/ knotsBaromVisibWave heightAir tempDewpointWater temp
2017-Sep-19 11:30N 37°44' W 025°40'0 0.0
2017-Sep-19 11:01N 37°44' W 025°40'0 0.0
2017-Sep-19 10:30N 37°44' W 025°40'0 0.0
2017-Sep-19 10:00N 37°44' W 025°40'0 0.0
2017-Sep-19 09:31N 37°44' W 025°40'0 0.0
2017-Sep-19 09:00N 37°44' W 025°40'0 0.0
2017-Sep-19 08:29N 37°44' W 025°40'0 0.1
2017-Sep-19 08:01N 37°44' W 025°40'1 2.4
2017-Sep-19 07:31N 37°43' W 025°39'5 9.7
2017-Sep-19 07:00N 37°40' W 025°34'713.6
2017-Sep-19 06:31N 37°41' W 025°25'612.3
2017-Sep-19 06:00N 37°41' W 025°17'612.1
2017-Sep-19 05:30N 37°42' W 025°10'713.4
2017-Sep-19 05:00N 37°46' W 025°03'713.7
2017-Sep-19 04:30N 37°50' W 024°56'713.9
2017-Sep-19 04:01N 37°55' W 024°50'713.7
2017-Sep-19 03:30N 37°59' W 024°43'713.8
2017-Sep-19 03:00N 38°03' W 024°36'713.7
2017-Sep-19 02:30N 38°08' W 024°29'713.6
2017-Sep-19 02:01N 38°12' W 024°22'713.8
2017-Sep-19 01:30N 38°16' W 024°15'713.9
2017-Sep-19 01:00N 38°20' W 024°08'713.7
2017-Sep-19 00:30N 38°24' W 024°02'7112.9
2017-Sep-18 19:00N 39°06' W 022°48'32215.4 190 / 111025.810.8 22.619.0
2017-Sep-17 22:00N 42°24' W 017°12'20116.8 340 / 111022.4 20.016.5
2017-Sep-17 10:00N 44°30' W 013°36'20315.6 240 / 161018.327.0 16.5 9.9
2017-Sep-16 21:00N 46°36' W 009°48'4815.9 270 / 131018.827.0 14.5 8.6
2017-Sep-16 18:00N 47°06' W 008°54'24014.9 280 / 231016.610.8 14.0 8.911.0
2017-Sep-16 01:58N 49°37' W 004°14'614.4
2017-Sep-16 01:30N 49°41' W 004°06'714.4
2017-Sep-16 01:01N 49°45' W 003°57'714.5
2017-Sep-16 00:31N 49°49' W 003°47'714.9
2017-Sep-16 00:01N 49°53' W 003°38'815.3
2017-Sep-15 23:31N 49°57' W 003°28'815.8
2017-Sep-15 23:01N 50°02' W 003°18'816.2
2017-Sep-15 22:31N 50°07' W 003°08'816.5
2017-Sep-15 22:01N 50°12' W 002°58'815.9
2017-Sep-15 21:31N 50°16' W 002°47'816.6
2017-Sep-15 21:00N 50°18' W 002°35'2316.6
2017-Sep-15 19:39N 50°28' W 002°03'216.1
2017-Sep-15 19:30N 50°30' W 001°60'815.7
2017-Sep-15 19:01N 50°33' W 001°49'815.0
2017-Sep-15 18:30N 50°37' W 001°39'714.9
2017-Sep-15 18:01N 50°43' W 001°31'612.7
2017-Sep-15 17:31N 50°45' W 001°22'5 9.3
2017-Sep-15 17:00N 50°49' W 001°18'5 9.1
2017-Sep-15 16:30N 50°52' W 001°23'1 2.2
2017-Sep-15 15:58N 50°53' W 001°24'0 0.0
2017-Sep-15 15:28N 50°53' W 001°24'0 0.0
2017-Sep-15 14:58N 50°53' W 001°24'0 0.0
2017-Sep-15 14:28N 50°53' W 001°24'0 0.0
2017-Sep-15 13:58N 50°53' W 001°24'0 0.0
2017-Sep-15 13:22N 50°53' W 001°24'0 0.0
2017-Sep-15 12:58N 50°53' W 001°24'0 0.0
2017-Sep-15 12:28N 50°53' W 001°24'0 0.0
2017-Sep-15 11:52N 50°53' W 001°24'0 0.0
2017-Sep-15 11:28N 50°53' W 001°24'0 0.0
2017-Sep-15 10:52N 50°53' W 001°24'0 0.0
2017-Sep-15 10:22N 50°53' W 001°24'0 0.0
2017-Sep-15 09:58N 50°53' W 001°24'0 0.0
2017-Sep-15 09:29N 50°53' W 001°24'0 0.0
2017-Sep-15 08:58N 50°53' W 001°24'0 0.0
2017-Sep-15 08:28N 50°53' W 001°24'0 0.0
2017-Sep-15 07:58N 50°53' W 001°24'0 0.0
2017-Sep-15 07:28N 50°53' W 001°24'0 0.0
2017-Sep-15 06:58N 50°53' W 001°24'0 0.0
2017-Sep-15 06:28N 50°53' W 001°24'0 0.0
2017-Sep-15 05:58N 50°53' W 001°24'0 0.0
2017-Sep-15 05:28N 50°53' W 001°24'0 0.0
2017-Sep-15 04:58N 50°53' W 001°24'0 0.0
2017-Sep-15 04:28N 50°53' W 001°24'0 0.0
2017-Sep-15 03:58N 50°53' W 001°24'0 0.0
2017-Sep-15 03:28N 50°53' W 001°24'0 0.0
2017-Sep-15 02:58N 50°53' W 001°24'0 0.0
2017-Sep-15 02:28N 50°53' W 001°24'0 0.0
2017-Sep-15 01:58N 50°53' W 001°24'0 0.0
2017-Sep-15 01:28N 50°53' W 001°24'0 0.0
2017-Sep-15 00:58N 50°53' W 001°24'0 0.0
2017-Sep-15 00:28N 50°53' W 001°24'0 0.0
2017-Sep-14 23:58N 50°53' W 001°24'0 0.0
2017-Sep-14 23:28N 50°53' W 001°24'0 0.0
2017-Sep-14 22:58N 50°53' W 001°24'0 0.0
2017-Sep-14 22:28N 50°53' W 001°24'0 0.0
2017-Sep-14 21:59N 50°53' W 001°24'0 0.0
2017-Sep-14 21:28N 50°53' W 001°24'0 0.0
2017-Sep-14 20:58N 50°53' W 001°24'0 0.0
2017-Sep-14 20:28N 50°53' W 001°24'0 0.0
2017-Sep-14 19:58N 50°53' W 001°24'0 0.0
2017-Sep-14 19:28N 50°53' W 001°24'0 0.0
2017-Sep-14 18:58N 50°53' W 001°24'0 0.0
2017-Sep-14 18:28N 50°53' W 001°24'0 0.0
2017-Sep-14 17:58N 50°53' W 001°24'0 0.0
2017-Sep-14 17:28N 50°53' W 001°24'0 0.0
2017-Sep-14 16:55N 50°53' W 001°24'0 0.0
2017-Sep-14 16:28N 50°53' W 001°24'0 0.0
2017-Sep-14 15:58N 50°53' W 001°24'0 0.0
2017-Sep-14 15:28N 50°53' W 001°24'0 0.0
2017-Sep-14 14:58N 50°53' W 001°24'0 0.0
2017-Sep-14 14:25N 50°53' W 001°24'0 0.0
2017-Sep-14 13:58N 50°53' W 001°24'0 0.0
2017-Sep-14 13:28N 50°53' W 001°24'0 0.0
2017-Sep-14 12:58N 50°53' W 001°24'0 0.0
2017-Sep-14 12:28N 50°53' W 001°24'0 0.0
2017-Sep-14 11:58N 50°53' W 001°24'0 0.0
2017-Sep-14 11:28N 50°53' W 001°24'0 0.0
2017-Sep-14 10:49N 50°53' W 001°24'0 0.0
2017-Sep-14 10:28N 50°53' W 001°24'0 0.0
2017-Sep-14 09:58N 50°53' W 001°24'0 0.0
2017-Sep-14 09:22N 50°53' W 001°24'0 0.0
2017-Sep-14 08:58N 50°53' W 001°24'0 0.0
2017-Sep-14 08:28N 50°53' W 001°24'0 0.0
2017-Sep-14 07:58N 50°53' W 001°24'0 0.0
2017-Sep-14 07:28N 50°53' W 001°24'0 0.0
2017-Sep-14 06:58N 50°53' W 001°24'0 0.0
2017-Sep-14 06:28N 50°53' W 001°24'0 0.0
2017-Sep-14 05:58N 50°53' W 001°24'0 0.1
2017-Sep-14 05:31N 50°53' W 001°24'1 2.8
2017-Sep-14 05:00N 50°52' W 001°22'4 8.4
2017-Sep-14 04:31N 50°49' W 001°18'3 6.1
2017-Sep-14 04:01N 50°47' W 001°15'714.8
2017-Sep-14 03:31N 50°44' W 001°04'612.6
2017-Sep-14 03:00N 50°40' W 000°56'3 5.9
2017-Sep-14 02:30N 50°39' W 000°52'611.6
2017-Sep-14 02:00N 50°37' W 000°43'612.8
2017-Sep-14 01:31N 50°35' W 000°34'612.8
2017-Sep-14 01:00N 50°34' W 000°24'612.8
2017-Sep-14 00:30N 50°33' W 000°14'612.9
2017-Sep-14 00:00N 50°31' W 000°04'612.4
2017-Sep-13 23:30N 50°33' E 000°05'612.9
2017-Sep-13 23:00N 50°35' E 000°15'612.8
2017-Sep-13 22:30N 50°37' E 000°25'612.9
2017-Sep-13 22:00N 50°39' E 000°34'613.0
2017-Sep-13 21:30N 50°42' E 000°43'612.9
2017-Sep-13 21:01N 50°46' E 000°52'612.7
2017-Sep-13 20:30N 50°49' E 001°00'712.1
2017-Sep-13 19:57N 50°53' E 001°08'511.5
2017-Sep-13 19:30N 50°57' E 001°15'612.5
2017-Sep-13 19:00N 51°01' E 001°21'612.3
2017-Sep-13 18:31N 51°05' E 001°29'611.7
2017-Sep-13 18:00N 51°09' E 001°36'611.8
2017-Sep-13 17:31N 51°13' E 001°43'612.1
2017-Sep-13 17:01N 51°18' E 001°49'612.7
2017-Sep-13 16:31N 51°23' E 001°53'713.1
2017-Sep-13 16:00N 51°29' E 001°58'714.2
2017-Sep-13 15:30N 51°34' E 002°07'14912.5
2017-Sep-13 03:31N 53°30' E 004°42'015.5
2017-Sep-13 03:30N 53°30' E 004°42'815.4
2017-Sep-13 03:00N 53°33' E 004°54'815.6
2017-Sep-13 02:30N 53°35' E 005°06'10315.1
2017-Sep-12 19:44N 54°02' E 007°54'416.7
2017-Sep-12 19:30N 54°01' E 008°00'815.7
2017-Sep-12 19:00N 54°01' E 008°14'613.0
2017-Sep-12 18:30N 53°59' E 008°25'816.1
2017-Sep-12 18:00N 53°57' E 008°38'713.5
2017-Sep-12 17:30N 53°52' E 008°44'612.1
2017-Sep-12 17:00N 53°51' E 008°54'612.4
2017-Sep-12 16:30N 53°52' E 009°05'3 5.4
2017-Sep-12 16:00N 53°54' E 009°09'0 0.0
2017-Sep-12 15:30N 53°54' E 009°09'0 0.0
2017-Sep-12 15:00N 53°54' E 009°09'0 0.0
2017-Sep-12 14:30N 53°54' E 009°09'1 2.2
2017-Sep-12 14:00N 53°54' E 009°10'3 6.7
2017-Sep-12 13:30N 53°57' E 009°14'4 7.0
2017-Sep-12 13:00N 53°60' E 009°17'3 6.8
2017-Sep-12 12:30N 54°03' E 009°18'4 7.0
2017-Sep-12 11:59N 54°07' E 009°20'3 5.5
2017-Sep-12 11:29N 54°09' E 009°22'3 4.2
2017-Sep-12 10:51N 54°10' E 009°26'37 4.9
2017-Sep-12 03:19N 54°30' E 010°19'310.4
2017-Sep-12 03:01N 54°32' E 010°24'611.2
2017-Sep-12 02:30N 54°34' E 010°33'611.4
2017-Sep-12 02:01N 54°35' E 010°43'612.0
2017-Sep-12 01:30N 54°36' E 010°53'612.5
2017-Sep-12 01:01N 54°36' E 011°04'612.3
2017-Sep-12 00:31N 54°36' E 011°14'713.5
2017-Sep-12 00:00N 54°33' E 011°25'612.3
2017-Sep-11 23:30N 54°27' E 011°29'713.8
2017-Sep-11 23:00N 54°20' E 011°27'1113.0
2017-Sep-11 22:09N 54°09' E 011°27'212.0
2017-Sep-11 22:00N 54°07' E 011°26'4 8.4
2017-Sep-11 21:30N 54°03' E 011°26'5 9.1
2017-Sep-11 21:00N 53°60' E 011°20'4 8.2
2017-Sep-11 20:30N 53°57' E 011°25'3 6.5
2017-Sep-11 20:00N 53°54' E 011°27'0 0.1
2017-Sep-11 19:28N 53°54' E 011°27'0 0.0
2017-Sep-11 18:58N 53°54' E 011°27'0 0.0
2017-Sep-11 18:25N 53°54' E 011°27'0 0.0
2017-Sep-11 17:58N 53°54' E 011°27'0 0.0
2017-Sep-11 17:28N 53°54' E 011°27'0 0.0
2017-Sep-11 16:55N 53°54' E 011°27'0 0.0
2017-Sep-11 16:28N 53°54' E 011°27'0 0.0
2017-Sep-11 15:58N 53°54' E 011°27'0 0.0
2017-Sep-11 15:28N 53°54' E 011°27'0 0.0
2017-Sep-11 14:58N 53°54' E 011°27'0 0.0
2017-Sep-11 14:28N 53°54' E 011°27'0 0.0
2017-Sep-11 13:58N 53°54' E 011°27'0 0.0
2017-Sep-11 13:25N 53°54' E 011°27'0 0.0
2017-Sep-11 12:58N 53°54' E 011°27'0 0.0
2017-Sep-11 12:25N 53°54' E 011°27'0 0.0
2017-Sep-11 11:58N 53°54' E 011°27'0 0.0
2017-Sep-11 11:28N 53°54' E 011°27'0 0.0
2017-Sep-11 10:58N 53°54' E 011°27'0 0.0
2017-Sep-11 10:28N 53°54' E 011°27'0 0.0
2017-Sep-11 09:58N 53°54' E 011°27'0 0.0
2017-Sep-11 09:28N 53°54' E 011°27'0 0.0
2017-Sep-11 08:58N 53°54' E 011°27'0 0.0
2017-Sep-11 08:28N 53°54' E 011°27'0 0.0
2017-Sep-11 07:58N 53°54' E 011°27'0 0.0
2017-Sep-11 07:28N 53°54' E 011°27'0 0.0
2017-Sep-11 06:58N 53°54' E 011°27'0 0.0
2017-Sep-11 06:28N 53°54' E 011°27'0 0.0
2017-Sep-11 05:58N 53°54' E 011°27'0 0.0
2017-Sep-11 05:28N 53°54' E 011°27'0 0.2
2017-Sep-11 05:00N 53°54' E 011°27'1 2.6
2017-Sep-11 04:30N 53°55' E 011°26'4 8.2
2017-Sep-11 04:00N 53°58' E 011°21'3 6.4
2017-Sep-11 03:30N 54°01' E 011°22'4 8.4
2017-Sep-11 02:59N 54°05' E 011°27'4 7.7
2017-Sep-11 02:30N 54°09' E 011°26'812.0
2017-Sep-11 01:51N 54°16' E 011°31'513.4
2017-Sep-11 01:30N 54°18' E 011°38'713.1
2017-Sep-11 01:00N 54°22' E 011°48'714.1
2017-Sep-11 00:30N 54°25' E 011°58'713.6
2017-Sep-11 00:00N 54°27' E 012°09'714.1
2017-Sep-10 23:30N 54°34' E 012°13'1713.7
2017-Sep-10 22:15N 54°45' E 012°36'1214.2
2017-Sep-10 21:26N 54°50' E 012°54'613.9
2017-Sep-10 21:00N 54°52' E 013°04'714.8
2017-Sep-10 20:30N 54°54' E 013°16'715.0
2017-Sep-10 20:00N 54°57' E 013°28'815.2
2017-Sep-10 19:30N 54°59' E 013°41'815.2
2017-Sep-10 19:00N 55°02' E 013°53'13989.4
2017-Sep-10 19:00N 54°54' E 013°36'2142.1 170 / 14998.827.0 16.214.1
2017-Sep-10 18:30N 55°05' E 014°06'816.8
2017-Sep-10 18:00N 55°12' E 014°14'816.5
2017-Sep-10 17:30N 55°19' E 014°22'816.2
2017-Sep-10 17:00N 55°25' E 014°32'816.0
2017-Sep-10 16:30N 55°29' E 014°44'816.0
2017-Sep-10 16:00N 55°34' E 014°56'816.3
2017-Sep-10 15:30N 55°38' E 015°08'816.4
2017-Sep-10 15:01N 55°42' E 015°21'1616.4
2017-Sep-10 14:00N 55°50' E 015°46'816.4
2017-Sep-10 13:30N 55°53' E 015°60'816.3
2017-Sep-10 13:00N 55°57' E 016°13'816.3
2017-Sep-10 12:30N 56°01' E 016°25'816.4
2017-Sep-10 12:00N 56°06' E 016°37'816.2
2017-Sep-10 11:30N 56°11' E 016°48'22014.2
2017-Sep-09 20:00N 57°36' E 023°00'   170 / 201001.327.0 16.014.3
Track history (hours):
 
Tides and Currents Weather Stations Pressure Air Temp Water Temp Dewpoint Dewpoint Depression Visibility Wind Speed Wind Dir Waves Ship Positions

Saga Sapphire

Last reported at 2017-Sep-19 11:30 UTC. Time now 2017-Sep-19 11:43 UTC.
Position N 37°44' W 025°40'.

Length 200 m; draft 8.6 m.

Type: Ship. MMSI: 256208000.

Date/timePositionNaut miles runAvg speedWind from/ knotsBaromVisibWave heightAir tempDewpointWater temp
2017-Sep-19 11:30N 37°44' W 025°40'0 0.0
2017-Sep-19 11:01N 37°44' W 025°40'0 0.0
2017-Sep-19 10:30N 37°44' W 025°40'0 0.0
2017-Sep-19 10:00N 37°44' W 025°40'0 0.0
2017-Sep-19 09:31N 37°44' W 025°40'0 0.0
2017-Sep-19 09:00N 37°44' W 025°40'0 0.0
2017-Sep-19 08:29N 37°44' W 025°40'0 0.1
2017-Sep-19 08:01N 37°44' W 025°40'1 2.4
2017-Sep-19 07:31N 37°43' W 025°39'5 9.7
2017-Sep-19 07:00N 37°40' W 025°34'713.6
2017-Sep-19 06:31N 37°41' W 025°25'612.3
2017-Sep-19 06:00N 37°41' W 025°17'612.1
2017-Sep-19 05:30N 37°42' W 025°10'713.4
2017-Sep-19 05:00N 37°46' W 025°03'713.7
2017-Sep-19 04:30N 37°50' W 024°56'713.9
2017-Sep-19 04:01N 37°55' W 024°50'713.7
2017-Sep-19 03:30N 37°59' W 024°43'713.8
2017-Sep-19 03:00N 38°03' W 024°36'713.7
2017-Sep-19 02:30N 38°08' W 024°29'713.6
2017-Sep-19 02:01N 38°12' W 024°22'713.8
2017-Sep-19 01:30N 38°16' W 024°15'713.9
2017-Sep-19 01:00N 38°20' W 024°08'713.7
2017-Sep-19 00:30N 38°24' W 024°02'7112.9
2017-Sep-18 19:00N 39°06' W 022°48'32215.4 190 / 111025.810.8 22.619.0
2017-Sep-17 22:00N 42°24' W 017°12'20116.8 340 / 111022.4 20.016.5
2017-Sep-17 10:00N 44°30' W 013°36'20315.6 240 / 161018.327.0 16.5 9.9
2017-Sep-16 21:00N 46°36' W 009°48'4815.9 270 / 131018.827.0 14.5 8.6
2017-Sep-16 18:00N 47°06' W 008°54'24014.9 280 / 231016.610.8 14.0 8.911.0
2017-Sep-16 01:58N 49°37' W 004°14'614.4
2017-Sep-16 01:30N 49°41' W 004°06'714.4
2017-Sep-16 01:01N 49°45' W 003°57'714.5
2017-Sep-16 00:31N 49°49' W 003°47'714.9
2017-Sep-16 00:01N 49°53' W 003°38'815.3
2017-Sep-15 23:31N 49°57' W 003°28'815.8
2017-Sep-15 23:01N 50°02' W 003°18'816.2
2017-Sep-15 22:31N 50°07' W 003°08'816.5
2017-Sep-15 22:01N 50°12' W 002°58'815.9
2017-Sep-15 21:31N 50°16' W 002°47'816.6
2017-Sep-15 21:00N 50°18' W 002°35'2316.6
2017-Sep-15 19:39N 50°28' W 002°03'216.1
2017-Sep-15 19:30N 50°30' W 001°60'815.7
2017-Sep-15 19:01N 50°33' W 001°49'815.0
2017-Sep-15 18:30N 50°37' W 001°39'714.9
2017-Sep-15 18:01N 50°43' W 001°31'612.7
2017-Sep-15 17:31N 50°45' W 001°22'5 9.3
2017-Sep-15 17:00N 50°49' W 001°18'5 9.1
2017-Sep-15 16:30N 50°52' W 001°23'1 2.2
2017-Sep-15 15:58N 50°53' W 001°24'0 0.0
2017-Sep-15 15:28N 50°53' W 001°24'0 0.0
2017-Sep-15 14:58N 50°53' W 001°24'0 0.0
2017-Sep-15 14:28N 50°53' W 001°24'0 0.0
2017-Sep-15 13:58N 50°53' W 001°24'0 0.0
2017-Sep-15 13:22N 50°53' W 001°24'0 0.0
2017-Sep-15 12:58N 50°53' W 001°24'0 0.0
2017-Sep-15 12:28N 50°53' W 001°24'0 0.0
2017-Sep-15 11:52N 50°53' W 001°24'0 0.0
2017-Sep-15 11:28N 50°53' W 001°24'0 0.0
2017-Sep-15 10:52N 50°53' W 001°24'0 0.0
2017-Sep-15 10:22N 50°53' W 001°24'0 0.0
2017-Sep-15 09:58N 50°53' W 001°24'0 0.0
2017-Sep-15 09:29N 50°53' W 001°24'0 0.0
2017-Sep-15 08:58N 50°53' W 001°24'0 0.0
2017-Sep-15 08:28N 50°53' W 001°24'0 0.0
2017-Sep-15 07:58N 50°53' W 001°24'0 0.0
2017-Sep-15 07:28N 50°53' W 001°24'0 0.0
2017-Sep-15 06:58N 50°53' W 001°24'0 0.0
2017-Sep-15 06:28N 50°53' W 001°24'0 0.0
2017-Sep-15 05:58N 50°53' W 001°24'0 0.0
2017-Sep-15 05:28N 50°53' W 001°24'0 0.0
2017-Sep-15 04:58N 50°53' W 001°24'0 0.0
2017-Sep-15 04:28N 50°53' W 001°24'0 0.0
2017-Sep-15 03:58N 50°53' W 001°24'0 0.0
2017-Sep-15 03:28N 50°53' W 001°24'0 0.0
2017-Sep-15 02:58N 50°53' W 001°24'0 0.0
2017-Sep-15 02:28N 50°53' W 001°24'0 0.0
2017-Sep-15 01:58N 50°53' W 001°24'0 0.0
2017-Sep-15 01:28N 50°53' W 001°24'0 0.0
2017-Sep-15 00:58N 50°53' W 001°24'0 0.0
2017-Sep-15 00:28N 50°53' W 001°24'0 0.0
2017-Sep-14 23:58N 50°53' W 001°24'0 0.0
2017-Sep-14 23:28N 50°53' W 001°24'0 0.0
2017-Sep-14 22:58N 50°53' W 001°24'0 0.0
2017-Sep-14 22:28N 50°53' W 001°24'0 0.0
2017-Sep-14 21:59N 50°53' W 001°24'0 0.0
2017-Sep-14 21:28N 50°53' W 001°24'0 0.0
2017-Sep-14 20:58N 50°53' W 001°24'0 0.0
2017-Sep-14 20:28N 50°53' W 001°24'0 0.0
2017-Sep-14 19:58N 50°53' W 001°24'0 0.0
2017-Sep-14 19:28N 50°53' W 001°24'0 0.0
2017-Sep-14 18:58N 50°53' W 001°24'0 0.0
2017-Sep-14 18:28N 50°53' W 001°24'0 0.0
2017-Sep-14 17:58N 50°53' W 001°24'0 0.0
2017-Sep-14 17:28N 50°53' W 001°24'0 0.0
2017-Sep-14 16:55N 50°53' W 001°24'0 0.0
2017-Sep-14 16:28N 50°53' W 001°24'0 0.0
2017-Sep-14 15:58N 50°53' W 001°24'0 0.0
2017-Sep-14 15:28N 50°53' W 001°24'0 0.0
2017-Sep-14 14:58N 50°53' W 001°24'0 0.0
2017-Sep-14 14:25N 50°53' W 001°24'0 0.0
2017-Sep-14 13:58N 50°53' W 001°24'0 0.0
2017-Sep-14 13:28N 50°53' W 001°24'0 0.0
2017-Sep-14 12:58N 50°53' W 001°24'0 0.0
2017-Sep-14 12:28N 50°53' W 001°24'0 0.0
2017-Sep-14 11:58N 50°53' W 001°24'0 0.0
2017-Sep-14 11:28N 50°53' W 001°24'0 0.0
2017-Sep-14 10:49N 50°53' W 001°24'0 0.0
2017-Sep-14 10:28N 50°53' W 001°24'0 0.0
2017-Sep-14 09:58N 50°53' W 001°24'0 0.0
2017-Sep-14 09:22N 50°53' W 001°24'0 0.0
2017-Sep-14 08:58N 50°53' W 001°24'0 0.0
2017-Sep-14 08:28N 50°53' W 001°24'0 0.0
2017-Sep-14 07:58N 50°53' W 001°24'0 0.0
2017-Sep-14 07:28N 50°53' W 001°24'0 0.0
2017-Sep-14 06:58N 50°53' W 001°24'0 0.0
2017-Sep-14 06:28N 50°53' W 001°24'0 0.0
2017-Sep-14 05:58N 50°53' W 001°24'0 0.1
2017-Sep-14 05:31N 50°53' W 001°24'1 2.8
2017-Sep-14 05:00N 50°52' W 001°22'4 8.4
2017-Sep-14 04:31N 50°49' W 001°18'3 6.1
2017-Sep-14 04:01N 50°47' W 001°15'714.8
2017-Sep-14 03:31N 50°44' W 001°04'612.6
2017-Sep-14 03:00N 50°40' W 000°56'3 5.9
2017-Sep-14 02:30N 50°39' W 000°52'611.6
2017-Sep-14 02:00N 50°37' W 000°43'612.8
2017-Sep-14 01:31N 50°35' W 000°34'612.8
2017-Sep-14 01:00N 50°34' W 000°24'612.8
2017-Sep-14 00:30N 50°33' W 000°14'612.9
2017-Sep-14 00:00N 50°31' W 000°04'612.4
2017-Sep-13 23:30N 50°33' E 000°05'612.9
2017-Sep-13 23:00N 50°35' E 000°15'612.8
2017-Sep-13 22:30N 50°37' E 000°25'612.9
2017-Sep-13 22:00N 50°39' E 000°34'613.0
2017-Sep-13 21:30N 50°42' E 000°43'612.9
2017-Sep-13 21:01N 50°46' E 000°52'612.7
2017-Sep-13 20:30N 50°49' E 001°00'712.1
2017-Sep-13 19:57N 50°53' E 001°08'511.5
2017-Sep-13 19:30N 50°57' E 001°15'612.5
2017-Sep-13 19:00N 51°01' E 001°21'612.3
2017-Sep-13 18:31N 51°05' E 001°29'611.7
2017-Sep-13 18:00N 51°09' E 001°36'611.8
2017-Sep-13 17:31N 51°13' E 001°43'612.1
2017-Sep-13 17:01N 51°18' E 001°49'612.7
2017-Sep-13 16:31N 51°23' E 001°53'713.1
2017-Sep-13 16:00N 51°29' E 001°58'714.2
2017-Sep-13 15:30N 51°34' E 002°07'14912.5
2017-Sep-13 03:31N 53°30' E 004°42'015.5
2017-Sep-13 03:30N 53°30' E 004°42'815.4
2017-Sep-13 03:00N 53°33' E 004°54'815.6
2017-Sep-13 02:30N 53°35' E 005°06'10315.1
2017-Sep-12 19:44N 54°02' E 007°54'416.7
2017-Sep-12 19:30N 54°01' E 008°00'815.7
2017-Sep-12 19:00N 54°01' E 008°14'613.0
2017-Sep-12 18:30N 53°59' E 008°25'816.1
2017-Sep-12 18:00N 53°57' E 008°38'713.5
2017-Sep-12 17:30N 53°52' E 008°44'612.1
2017-Sep-12 17:00N 53°51' E 008°54'612.4
2017-Sep-12 16:30N 53°52' E 009°05'3 5.4
2017-Sep-12 16:00N 53°54' E 009°09'0 0.0
2017-Sep-12 15:30N 53°54' E 009°09'0 0.0
2017-Sep-12 15:00N 53°54' E 009°09'0 0.0
2017-Sep-12 14:30N 53°54' E 009°09'1 2.2
2017-Sep-12 14:00N 53°54' E 009°10'3 6.7
2017-Sep-12 13:30N 53°57' E 009°14'4 7.0
2017-Sep-12 13:00N 53°60' E 009°17'3 6.8
2017-Sep-12 12:30N 54°03' E 009°18'4 7.0
2017-Sep-12 11:59N 54°07' E 009°20'3 5.5
2017-Sep-12 11:29N 54°09' E 009°22'3 4.2
2017-Sep-12 10:51N 54°10' E 009°26'37 4.9
2017-Sep-12 03:19N 54°30' E 010°19'310.4
2017-Sep-12 03:01N 54°32' E 010°24'611.2
2017-Sep-12 02:30N 54°34' E 010°33'611.4
2017-Sep-12 02:01N 54°35' E 010°43'612.0
2017-Sep-12 01:30N 54°36' E 010°53'612.5
2017-Sep-12 01:01N 54°36' E 011°04'612.3
2017-Sep-12 00:31N 54°36' E 011°14'713.5
2017-Sep-12 00:00N 54°33' E 011°25'612.3
2017-Sep-11 23:30N 54°27' E 011°29'713.8
2017-Sep-11 23:00N 54°20' E 011°27'1113.0
2017-Sep-11 22:09N 54°09' E 011°27'212.0
2017-Sep-11 22:00N 54°07' E 011°26'4 8.4
2017-Sep-11 21:30N 54°03' E 011°26'5 9.1
2017-Sep-11 21:00N 53°60' E 011°20'4 8.2
2017-Sep-11 20:30N 53°57' E 011°25'3 6.5
2017-Sep-11 20:00N 53°54' E 011°27'0 0.1
2017-Sep-11 19:28N 53°54' E 011°27'0 0.0
2017-Sep-11 18:58N 53°54' E 011°27'0 0.0
2017-Sep-11 18:25N 53°54' E 011°27'0 0.0
2017-Sep-11 17:58N 53°54' E 011°27'0 0.0
2017-Sep-11 17:28N 53°54' E 011°27'0 0.0
2017-Sep-11 16:55N 53°54' E 011°27'0 0.0
2017-Sep-11 16:28N 53°54' E 011°27'0 0.0
2017-Sep-11 15:58N 53°54' E 011°27'0 0.0
2017-Sep-11 15:28N 53°54' E 011°27'0 0.0
2017-Sep-11 14:58N 53°54' E 011°27'0 0.0
2017-Sep-11 14:28N 53°54' E 011°27'0 0.0
2017-Sep-11 13:58N 53°54' E 011°27'0 0.0
2017-Sep-11 13:25N 53°54' E 011°27'0 0.0
2017-Sep-11 12:58N 53°54' E 011°27'0 0.0
2017-Sep-11 12:25N 53°54' E 011°27'0 0.0
2017-Sep-11 11:58N 53°54' E 011°27'0 0.0
2017-Sep-11 11:28N 53°54' E 011°27'0 0.0
2017-Sep-11 10:58N 53°54' E 011°27'0 0.0
2017-Sep-11 10:28N 53°54' E 011°27'0 0.0
2017-Sep-11 09:58N 53°54' E 011°27'0 0.0
2017-Sep-11 09:28N 53°54' E 011°27'0 0.0
2017-Sep-11 08:58N 53°54' E 011°27'0 0.0
2017-Sep-11 08:28N 53°54' E 011°27'0 0.0
2017-Sep-11 07:58N 53°54' E 011°27'0 0.0
2017-Sep-11 07:28N 53°54' E 011°27'0 0.0
2017-Sep-11 06:58N 53°54' E 011°27'0 0.0
2017-Sep-11 06:28N 53°54' E 011°27'0 0.0
2017-Sep-11 05:58N 53°54' E 011°27'0 0.0
2017-Sep-11 05:28N 53°54' E 011°27'0 0.2
2017-Sep-11 05:00N 53°54' E 011°27'1 2.6
2017-Sep-11 04:30N 53°55' E 011°26'4 8.2
2017-Sep-11 04:00N 53°58' E 011°21'3 6.4
2017-Sep-11 03:30N 54°01' E 011°22'4 8.4
2017-Sep-11 02:59N 54°05' E 011°27'4 7.7
2017-Sep-11 02:30N 54°09' E 011°26'812.0
2017-Sep-11 01:51N 54°16' E 011°31'513.4
2017-Sep-11 01:30N 54°18' E 011°38'713.1
2017-Sep-11 01:00N 54°22' E 011°48'714.1
2017-Sep-11 00:30N 54°25' E 011°58'713.6
2017-Sep-11 00:00N 54°27' E 012°09'714.1
2017-Sep-10 23:30N 54°34' E 012°13'1713.7
2017-Sep-10 22:15N 54°45' E 012°36'1214.2
2017-Sep-10 21:26N 54°50' E 012°54'613.9
2017-Sep-10 21:00N 54°52' E 013°04'714.8
2017-Sep-10 20:30N 54°54' E 013°16'715.0
2017-Sep-10 20:00N 54°57' E 013°28'815.2
2017-Sep-10 19:30N 54°59' E 013°41'815.2
2017-Sep-10 19:00N 55°02' E 013°53'13989.4
2017-Sep-10 19:00N 54°54' E 013°36'2142.1 170 / 14998.827.0 16.214.1
2017-Sep-10 18:30N 55°05' E 014°06'816.8
2017-Sep-10 18:00N 55°12' E 014°14'816.5
2017-Sep-10 17:30N 55°19' E 014°22'816.2
2017-Sep-10 17:00N 55°25' E 014°32'816.0
2017-Sep-10 16:30N 55°29' E 014°44'816.0
2017-Sep-10 16:00N 55°34' E 014°56'816.3
2017-Sep-10 15:30N 55°38' E 015°08'816.4
2017-Sep-10 15:01N 55°42' E 015°21'1616.4
2017-Sep-10 14:00N 55°50' E 015°46'816.4
2017-Sep-10 13:30N 55°53' E 015°60'816.3
2017-Sep-10 13:00N 55°57' E 016°13'816.3
2017-Sep-10 12:30N 56°01' E 016°25'816.4
2017-Sep-10 12:00N 56°06' E 016°37'816.2
2017-Sep-10 11:30N 56°11' E 016°48'22014.2
2017-Sep-09 20:00N 57°36' E 023°00'   170 / 201001.327.0 16.014.3

Dump ship's entire track history